sensor_id;sensor_type;location;lat;lon;timestamp;P1;durP1;ratioP1;P2;durP2;ratioP2
80123;SDS011;69433;48.642;9.142;2024-01-11T00:01:38;18.58;;;12.63;;
80123;SDS011;69433;48.642;9.142;2024-01-11T00:06:55;17.45;;;12.57;;
80123;SDS011;69433;48.642;9.142;2024-01-11T00:09:20;17.40;;;12.65;;
80123;SDS011;69433;48.642;9.142;2024-01-11T00:11:54;16.30;;;12.52;;
80123;SDS011;69433;48.642;9.142;2024-01-11T00:14:21;19.98;;;13.13;;
80123;SDS011;69433;48.642;9.142;2024-01-11T00:16:48;18.40;;;12.43;;
80123;SDS011;69433;48.642;9.142;2024-01-11T00:19:14;18.38;;;12.38;;
80123;SDS011;69433;48.642;9.142;2024-01-11T00:21:39;16.27;;;11.43;;
80123;SDS011;69433;48.642;9.142;2024-01-11T00:24:07;15.98;;;11.70;;
80123;SDS011;69433;48.642;9.142;2024-01-11T00:26:32;18.90;;;13.63;;
80123;SDS011;69433;48.642;9.142;2024-01-11T00:28:57;18.95;;;11.85;;
80123;SDS011;69433;48.642;9.142;2024-01-11T00:31:23;16.83;;;11.73;;
80123;SDS011;69433;48.642;9.142;2024-01-11T00:33:48;17.73;;;11.85;;
80123;SDS011;69433;48.642;9.142;2024-01-11T00:36:20;17.48;;;11.75;;
80123;SDS011;69433;48.642;9.142;2024-01-11T00:38:47;16.05;;;11.90;;
80123;SDS011;69433;48.642;9.142;2024-01-11T00:41:13;17.00;;;11.55;;
80123;SDS011;69433;48.642;9.142;2024-01-11T00:43:38;16.52;;;11.80;;
80123;SDS011;69433;48.642;9.142;2024-01-11T00:46:12;16.13;;;11.00;;
80123;SDS011;69433;48.642;9.142;2024-01-11T00:48:42;19.55;;;12.45;;
80123;SDS011;69433;48.642;9.142;2024-01-11T00:53:34;16.30;;;10.80;;
80123;SDS011;69433;48.642;9.142;2024-01-11T00:56:00;17.02;;;10.88;;
80123;SDS011;69433;48.642;9.142;2024-01-11T00:58:30;17.65;;;11.50;;
80123;SDS011;69433;48.642;9.142;2024-01-11T01:00:56;14.98;;;11.73;;
80123;SDS011;69433;48.642;9.142;2024-01-11T01:03:21;16.40;;;12.27;;
80123;SDS011;69433;48.642;9.142;2024-01-11T01:10:48;15.57;;;12.23;;
80123;SDS011;69433;48.642;9.142;2024-01-11T01:13:14;15.57;;;10.90;;
80123;SDS011;69433;48.642;9.142;2024-01-11T01:15:40;17.30;;;11.98;;
80123;SDS011;69433;48.642;9.142;2024-01-11T01:18:06;16.20;;;10.40;;
80123;SDS011;69433;48.642;9.142;2024-01-11T01:20:33;15.40;;;10.32;;
80123;SDS011;69433;48.642;9.142;2024-01-11T01:22:58;14.48;;;10.35;;
80123;SDS011;69433;48.642;9.142;2024-01-11T01:25:24;15.30;;;12.05;;
80123;SDS011;69433;48.642;9.142;2024-01-11T01:27:49;16.02;;;11.10;;
80123;SDS011;69433;48.642;9.142;2024-01-11T01:30:15;13.68;;;10.20;;
80123;SDS011;69433;48.642;9.142;2024-01-11T01:32:40;15.35;;;10.40;;
80123;SDS011;69433;48.642;9.142;2024-01-11T01:35:12;15.15;;;10.88;;
80123;SDS011;69433;48.642;9.142;2024-01-11T01:37:38;15.18;;;11.25;;
80123;SDS011;69433;48.642;9.142;2024-01-11T01:40:06;15.05;;;10.43;;
80123;SDS011;69433;48.642;9.142;2024-01-11T01:45:14;15.57;;;10.40;;
80123;SDS011;69433;48.642;9.142;2024-01-11T01:47:48;14.75;;;11.48;;
80123;SDS011;69433;48.642;9.142;2024-01-11T01:50:20;14.60;;;10.50;;
80123;SDS011;69433;48.642;9.142;2024-01-11T01:52:46;13.60;;;9.77;;
80123;SDS011;69433;48.642;9.142;2024-01-11T01:55:12;15.35;;;10.23;;
80123;SDS011;69433;48.642;9.142;2024-01-11T01:57:43;14.02;;;9.88;;
80123;SDS011;69433;48.642;9.142;2024-01-11T02:00:11;14.80;;;10.45;;
80123;SDS011;69433;48.642;9.142;2024-01-11T02:02:37;12.65;;;9.70;;
80123;SDS011;69433;48.642;9.142;2024-01-11T02:05:05;14.15;;;9.73;;
80123;SDS011;69433;48.642;9.142;2024-01-11T02:07:33;14.70;;;9.70;;
80123;SDS011;69433;48.642;9.142;2024-01-11T02:10:05;14.77;;;10.18;;
80123;SDS011;69433;48.642;9.142;2024-01-11T02:12:31;12.77;;;9.68;;
80123;SDS011;69433;48.642;9.142;2024-01-11T02:14:58;14.45;;;9.70;;
80123;SDS011;69433;48.642;9.142;2024-01-11T02:20:14;13.10;;;9.68;;
80123;SDS011;69433;48.642;9.142;2024-01-11T02:22:40;13.60;;;9.52;;
80123;SDS011;69433;48.642;9.142;2024-01-11T02:25:10;13.48;;;9.25;;
80123;SDS011;69433;48.642;9.142;2024-01-11T02:27:45;13.85;;;8.93;;
80123;SDS011;69433;48.642;9.142;2024-01-11T02:30:12;13.75;;;10.52;;
80123;SDS011;69433;48.642;9.142;2024-01-11T02:32:37;13.57;;;9.63;;
80123;SDS011;69433;48.642;9.142;2024-01-11T02:35:03;13.73;;;9.60;;
80123;SDS011;69433;48.642;9.142;2024-01-11T02:37:29;12.73;;;9.02;;
80123;SDS011;69433;48.642;9.142;2024-01-11T02:39:56;14.00;;;9.63;;
80123;SDS011;69433;48.642;9.142;2024-01-11T02:42:21;14.68;;;10.27;;
80123;SDS011;69433;48.642;9.142;2024-01-11T02:44:49;14.65;;;9.45;;
80123;SDS011;69433;48.642;9.142;2024-01-11T02:47:15;14.07;;;10.05;;
80123;SDS011;69433;48.642;9.142;2024-01-11T02:49:41;14.43;;;10.13;;
80123;SDS011;69433;48.642;9.142;2024-01-11T02:52:07;13.77;;;9.15;;
80123;SDS011;69433;48.642;9.142;2024-01-11T02:54:34;12.98;;;9.40;;
80123;SDS011;69433;48.642;9.142;2024-01-11T02:57:02;14.60;;;9.82;;
80123;SDS011;69433;48.642;9.142;2024-01-11T02:59:28;13.65;;;9.13;;
80123;SDS011;69433;48.642;9.142;2024-01-11T03:01:53;15.18;;;9.48;;
80123;SDS011;69433;48.642;9.142;2024-01-11T03:04:19;14.27;;;9.45;;
80123;SDS011;69433;48.642;9.142;2024-01-11T03:06:44;12.63;;;9.25;;
80123;SDS011;69433;48.642;9.142;2024-01-11T03:09:11;14.45;;;9.27;;
80123;SDS011;69433;48.642;9.142;2024-01-11T03:11:37;12.23;;;9.07;;
80123;SDS011;69433;48.642;9.142;2024-01-11T03:14:03;12.57;;;9.50;;
80123;SDS011;69433;48.642;9.142;2024-01-11T03:16:29;13.52;;;9.27;;
80123;SDS011;69433;48.642;9.142;2024-01-11T03:18:56;11.32;;;8.60;;
80123;SDS011;69433;48.642;9.142;2024-01-11T03:21:22;13.70;;;9.23;;
80123;SDS011;69433;48.642;9.142;2024-01-11T03:26:16;12.30;;;9.75;;
80123;SDS011;69433;48.642;9.142;2024-01-11T03:28:42;12.95;;;9.25;;
80123;SDS011;69433;48.642;9.142;2024-01-11T03:31:08;11.65;;;8.48;;
80123;SDS011;69433;48.642;9.142;2024-01-11T03:33:34;13.07;;;8.85;;
80123;SDS011;69433;48.642;9.142;2024-01-11T03:36:05;12.35;;;9.60;;
80123;SDS011;69433;48.642;9.142;2024-01-11T03:38:32;14.80;;;9.30;;
80123;SDS011;69433;48.642;9.142;2024-01-11T03:40:58;12.25;;;8.70;;
80123;SDS011;69433;48.642;9.142;2024-01-11T03:43:23;12.02;;;8.55;;
80123;SDS011;69433;48.642;9.142;2024-01-11T03:45:48;13.50;;;9.15;;
80123;SDS011;69433;48.642;9.142;2024-01-11T03:48:15;13.07;;;9.32;;
80123;SDS011;69433;48.642;9.142;2024-01-11T03:50:41;13.45;;;8.48;;
80123;SDS011;69433;48.642;9.142;2024-01-11T03:53:06;11.77;;;8.63;;
80123;SDS011;69433;48.642;9.142;2024-01-11T03:55:39;13.90;;;9.27;;
80123;SDS011;69433;48.642;9.142;2024-01-11T03:58:06;11.98;;;8.45;;
80123;SDS011;69433;48.642;9.142;2024-01-11T04:00:31;13.18;;;9.18;;
80123;SDS011;69433;48.642;9.142;2024-01-11T04:02:59;11.35;;;8.18;;
80123;SDS011;69433;48.642;9.142;2024-01-11T04:05:26;13.10;;;8.73;;
80123;SDS011;69433;48.642;9.142;2024-01-11T04:07:51;14.55;;;9.48;;
80123;SDS011;69433;48.642;9.142;2024-01-11T04:10:17;12.98;;;9.35;;
80123;SDS011;69433;48.642;9.142;2024-01-11T04:12:43;13.07;;;9.68;;
80123;SDS011;69433;48.642;9.142;2024-01-11T04:15:12;16.42;;;9.60;;
80123;SDS011;69433;48.642;9.142;2024-01-11T04:17:39;14.07;;;9.30;;
80123;SDS011;69433;48.642;9.142;2024-01-11T04:20:11;18.40;;;9.98;;
80123;SDS011;69433;48.642;9.142;2024-01-11T04:22:43;14.20;;;9.88;;
80123;SDS011;69433;48.642;9.142;2024-01-11T04:25:17;14.43;;;9.90;;
80123;SDS011;69433;48.642;9.142;2024-01-11T04:27:45;20.45;;;9.82;;
80123;SDS011;69433;48.642;9.142;2024-01-11T04:30:11;13.95;;;9.90;;
80123;SDS011;69433;48.642;9.142;2024-01-11T04:32:36;13.07;;;9.13;;
80123;SDS011;69433;48.642;9.142;2024-01-11T04:35:02;12.68;;;9.00;;
80123;SDS011;69433;48.642;9.142;2024-01-11T04:37:30;10.63;;;8.65;;
80123;SDS011;69433;48.642;9.142;2024-01-11T04:39:56;12.77;;;8.65;;
80123;SDS011;69433;48.642;9.142;2024-01-11T04:42:25;12.10;;;8.45;;
80123;SDS011;69433;48.642;9.142;2024-01-11T04:44:55;12.35;;;8.27;;
80123;SDS011;69433;48.642;9.142;2024-01-11T04:47:21;11.85;;;8.60;;
80123;SDS011;69433;48.642;9.142;2024-01-11T04:49:46;10.70;;;8.15;;
80123;SDS011;69433;48.642;9.142;2024-01-11T04:52:12;11.52;;;8.50;;
80123;SDS011;69433;48.642;9.142;2024-01-11T04:57:13;12.60;;;8.30;;
80123;SDS011;69433;48.642;9.142;2024-01-11T04:59:40;10.18;;;7.70;;
80123;SDS011;69433;48.642;9.142;2024-01-11T05:02:05;11.52;;;8.15;;
80123;SDS011;69433;48.642;9.142;2024-01-11T05:04:32;12.52;;;8.48;;
80123;SDS011;69433;48.642;9.142;2024-01-11T05:06:59;12.55;;;8.32;;
80123;SDS011;69433;48.642;9.142;2024-01-11T05:09:30;12.80;;;9.00;;
80123;SDS011;69433;48.642;9.142;2024-01-11T05:11:55;12.70;;;7.93;;
80123;SDS011;69433;48.642;9.142;2024-01-11T05:14:20;10.63;;;8.77;;
80123;SDS011;69433;48.642;9.142;2024-01-11T05:16:46;14.63;;;8.40;;
80123;SDS011;69433;48.642;9.142;2024-01-11T05:19:13;13.52;;;8.57;;
80123;SDS011;69433;48.642;9.142;2024-01-11T05:21:38;12.25;;;7.82;;
80123;SDS011;69433;48.642;9.142;2024-01-11T05:24:04;14.35;;;8.82;;
80123;SDS011;69433;48.642;9.142;2024-01-11T05:26:35;14.35;;;8.02;;
80123;SDS011;69433;48.642;9.142;2024-01-11T05:29:01;10.65;;;8.23;;
80123;SDS011;69433;48.642;9.142;2024-01-11T05:31:41;10.23;;;8.45;;
80123;SDS011;69433;48.642;9.142;2024-01-11T05:34:06;12.48;;;9.18;;
80123;SDS011;69433;48.642;9.142;2024-01-11T05:39:13;13.02;;;8.25;;
80123;SDS011;69433;48.642;9.142;2024-01-11T05:41:38;12.68;;;7.60;;
80123;SDS011;69433;48.642;9.142;2024-01-11T05:44:04;11.32;;;7.88;;
80123;SDS011;69433;48.642;9.142;2024-01-11T05:46:29;18.80;;;9.27;;
80123;SDS011;69433;48.642;9.142;2024-01-11T05:49:04;12.75;;;8.15;;
80123;SDS011;69433;48.642;9.142;2024-01-11T05:51:29;10.95;;;7.80;;
80123;SDS011;69433;48.642;9.142;2024-01-11T05:54:02;11.23;;;7.60;;
80123;SDS011;69433;48.642;9.142;2024-01-11T05:56:29;11.25;;;7.32;;
80123;SDS011;69433;48.642;9.142;2024-01-11T05:58:54;11.07;;;7.65;;
80123;SDS011;69433;48.642;9.142;2024-01-11T06:01:30;13.40;;;8.32;;
80123;SDS011;69433;48.642;9.142;2024-01-11T06:03:55;13.65;;;8.73;;
80123;SDS011;69433;48.642;9.142;2024-01-11T06:06:20;10.50;;;7.78;;
80123;SDS011;69433;48.642;9.142;2024-01-11T06:08:46;10.23;;;7.35;;
80123;SDS011;69433;48.642;9.142;2024-01-11T06:11:21;13.85;;;8.65;;
80123;SDS011;69433;48.642;9.142;2024-01-11T06:13:48;12.02;;;8.35;;
80123;SDS011;69433;48.642;9.142;2024-01-11T06:16:13;12.43;;;8.63;;
80123;SDS011;69433;48.642;9.142;2024-01-11T06:18:39;10.57;;;7.93;;
80123;SDS011;69433;48.642;9.142;2024-01-11T06:21:07;12.80;;;8.60;;
80123;SDS011;69433;48.642;9.142;2024-01-11T06:23:38;10.25;;;7.55;;
80123;SDS011;69433;48.642;9.142;2024-01-11T06:28:33;13.40;;;8.02;;
80123;SDS011;69433;48.642;9.142;2024-01-11T06:30:58;11.23;;;8.07;;
80123;SDS011;69433;48.642;9.142;2024-01-11T06:36:06;11.48;;;8.25;;
80123;SDS011;69433;48.642;9.142;2024-01-11T06:38:32;12.48;;;8.38;;
80123;SDS011;69433;48.642;9.142;2024-01-11T06:40:59;13.25;;;8.52;;
80123;SDS011;69433;48.642;9.142;2024-01-11T06:43:24;12.57;;;8.88;;
80123;SDS011;69433;48.642;9.142;2024-01-11T06:45:50;11.93;;;8.50;;
80123;SDS011;69433;48.642;9.142;2024-01-11T06:48:26;13.75;;;9.85;;
80123;SDS011;69433;48.642;9.142;2024-01-11T06:51:05;12.00;;;8.18;;
80123;SDS011;69433;48.642;9.142;2024-01-11T06:53:30;12.45;;;8.15;;
80123;SDS011;69433;48.642;9.142;2024-01-11T06:55:55;11.38;;;8.40;;
80123;SDS011;69433;48.642;9.142;2024-01-11T06:58:37;12.00;;;8.43;;
80123;SDS011;69433;48.642;9.142;2024-01-11T07:01:02;12.95;;;8.60;;
80123;SDS011;69433;48.642;9.142;2024-01-11T07:03:33;11.45;;;8.05;;
80123;SDS011;69433;48.642;9.142;2024-01-11T07:06:00;12.38;;;8.00;;
80123;SDS011;69433;48.642;9.142;2024-01-11T07:08:25;12.65;;;8.90;;
80123;SDS011;69433;48.642;9.142;2024-01-11T07:10:50;13.95;;;9.32;;
80123;SDS011;69433;48.642;9.142;2024-01-11T07:13:16;10.73;;;7.70;;
80123;SDS011;69433;48.642;9.142;2024-01-11T07:15:42;10.63;;;8.18;;
80123;SDS011;69433;48.642;9.142;2024-01-11T07:18:08;11.52;;;8.00;;
80123;SDS011;69433;48.642;9.142;2024-01-11T07:20:33;12.38;;;8.07;;
80123;SDS011;69433;48.642;9.142;2024-01-11T07:23:06;11.88;;;7.88;;
80123;SDS011;69433;48.642;9.142;2024-01-11T07:25:34;12.30;;;8.18;;
80123;SDS011;69433;48.642;9.142;2024-01-11T07:27:59;12.57;;;8.57;;
80123;SDS011;69433;48.642;9.142;2024-01-11T07:32:56;11.60;;;8.38;;
80123;SDS011;69433;48.642;9.142;2024-01-11T07:35:24;10.68;;;7.88;;
80123;SDS011;69433;48.642;9.142;2024-01-11T07:37:49;11.95;;;7.97;;
80123;SDS011;69433;48.642;9.142;2024-01-11T07:40:22;11.75;;;8.32;;
80123;SDS011;69433;48.642;9.142;2024-01-11T07:42:51;11.82;;;8.45;;
80123;SDS011;69433;48.642;9.142;2024-01-11T07:45:17;10.50;;;7.88;;
80123;SDS011;69433;48.642;9.142;2024-01-11T07:47:48;11.43;;;7.75;;
80123;SDS011;69433;48.642;9.142;2024-01-11T07:50:13;11.55;;;7.70;;
80123;SDS011;69433;48.642;9.142;2024-01-11T07:52:39;13.80;;;8.63;;
80123;SDS011;69433;48.642;9.142;2024-01-11T07:55:07;10.30;;;7.35;;
80123;SDS011;69433;48.642;9.142;2024-01-11T07:57:35;10.90;;;7.85;;
80123;SDS011;69433;48.642;9.142;2024-01-11T08:00:03;11.90;;;7.95;;
80123;SDS011;69433;48.642;9.142;2024-01-11T08:02:39;12.45;;;8.15;;
80123;SDS011;69433;48.642;9.142;2024-01-11T08:05:05;12.80;;;9.23;;
80123;SDS011;69433;48.642;9.142;2024-01-11T08:07:35;11.93;;;8.60;;
80123;SDS011;69433;48.642;9.142;2024-01-11T08:10:01;13.93;;;8.98;;
80123;SDS011;69433;48.642;9.142;2024-01-11T08:12:26;10.85;;;7.65;;
80123;SDS011;69433;48.642;9.142;2024-01-11T08:14:51;11.02;;;8.38;;
80123;SDS011;69433;48.642;9.142;2024-01-11T08:17:17;10.77;;;7.50;;
80123;SDS011;69433;48.642;9.142;2024-01-11T08:19:42;11.63;;;8.25;;
80123;SDS011;69433;48.642;9.142;2024-01-11T08:22:08;12.60;;;8.02;;
80123;SDS011;69433;48.642;9.142;2024-01-11T08:24:34;13.63;;;8.90;;
80123;SDS011;69433;48.642;9.142;2024-01-11T08:27:13;14.07;;;9.13;;
80123;SDS011;69433;48.642;9.142;2024-01-11T08:29:42;15.27;;;9.10;;
80123;SDS011;69433;48.642;9.142;2024-01-11T08:32:10;13.32;;;8.77;;
80123;SDS011;69433;48.642;9.142;2024-01-11T08:34:37;12.88;;;9.02;;
80123;SDS011;69433;48.642;9.142;2024-01-11T08:37:04;12.48;;;8.70;;
80123;SDS011;69433;48.642;9.142;2024-01-11T08:39:33;13.27;;;8.50;;
80123;SDS011;69433;48.642;9.142;2024-01-11T08:42:05;14.05;;;9.63;;
80123;SDS011;69433;48.642;9.142;2024-01-11T08:44:31;12.38;;;9.85;;
80123;SDS011;69433;48.642;9.142;2024-01-11T08:46:57;12.57;;;8.70;;
80123;SDS011;69433;48.642;9.142;2024-01-11T08:49:24;14.68;;;9.23;;
80123;SDS011;69433;48.642;9.142;2024-01-11T08:51:49;13.10;;;9.68;;
80123;SDS011;69433;48.642;9.142;2024-01-11T08:54:14;13.27;;;9.23;;
80123;SDS011;69433;48.642;9.142;2024-01-11T08:56:48;13.00;;;9.85;;
80123;SDS011;69433;48.642;9.142;2024-01-11T08:59:16;12.48;;;9.70;;
80123;SDS011;69433;48.642;9.142;2024-01-11T09:01:41;11.43;;;8.80;;
80123;SDS011;69433;48.642;9.142;2024-01-11T09:04:06;12.55;;;9.25;;
80123;SDS011;69433;48.642;9.142;2024-01-11T09:06:33;14.50;;;10.25;;
80123;SDS011;69433;48.642;9.142;2024-01-11T09:08:59;13.63;;;10.23;;
80123;SDS011;69433;48.642;9.142;2024-01-11T09:11:25;13.18;;;9.65;;
80123;SDS011;69433;48.642;9.142;2024-01-11T09:13:54;14.15;;;10.00;;
80123;SDS011;69433;48.642;9.142;2024-01-11T09:16:19;14.48;;;10.10;;
80123;SDS011;69433;48.642;9.142;2024-01-11T09:18:51;15.18;;;9.75;;
80123;SDS011;69433;48.642;9.142;2024-01-11T09:21:18;14.88;;;10.85;;
80123;SDS011;69433;48.642;9.142;2024-01-11T09:23:45;13.75;;;9.55;;
80123;SDS011;69433;48.642;9.142;2024-01-11T09:26:10;14.18;;;10.10;;
80123;SDS011;69433;48.642;9.142;2024-01-11T09:28:36;14.63;;;9.68;;
80123;SDS011;69433;48.642;9.142;2024-01-11T09:31:02;13.65;;;10.50;;
80123;SDS011;69433;48.642;9.142;2024-01-11T09:33:31;14.57;;;10.00;;
80123;SDS011;69433;48.642;9.142;2024-01-11T09:36:01;15.35;;;9.95;;
80123;SDS011;69433;48.642;9.142;2024-01-11T09:38:40;13.27;;;10.30;;
80123;SDS011;69433;48.642;9.142;2024-01-11T09:41:22;15.15;;;9.60;;
80123;SDS011;69433;48.642;9.142;2024-01-11T09:43:52;13.52;;;9.60;;
80123;SDS011;69433;48.642;9.142;2024-01-11T09:49:12;14.90;;;11.27;;
80123;SDS011;69433;48.642;9.142;2024-01-11T09:51:38;13.35;;;10.30;;
80123;SDS011;69433;48.642;9.142;2024-01-11T09:54:05;15.18;;;11.57;;
80123;SDS011;69433;48.642;9.142;2024-01-11T09:56:32;13.27;;;9.90;;
80123;SDS011;69433;48.642;9.142;2024-01-11T09:58:57;14.95;;;10.20;;
80123;SDS011;69433;48.642;9.142;2024-01-11T10:01:22;14.85;;;9.63;;
80123;SDS011;69433;48.642;9.142;2024-01-11T10:03:49;14.18;;;10.75;;
80123;SDS011;69433;48.642;9.142;2024-01-11T10:06:26;15.10;;;10.10;;
80123;SDS011;69433;48.642;9.142;2024-01-11T10:09:06;14.65;;;10.57;;
80123;SDS011;69433;48.642;9.142;2024-01-11T10:11:32;14.80;;;10.02;;
80123;SDS011;69433;48.642;9.142;2024-01-11T10:14:00;13.27;;;10.60;;
80123;SDS011;69433;48.642;9.142;2024-01-11T10:16:43;13.93;;;10.82;;
80123;SDS011;69433;48.642;9.142;2024-01-11T10:19:08;15.15;;;10.30;;
80123;SDS011;69433;48.642;9.142;2024-01-11T10:21:37;14.80;;;11.02;;
80123;SDS011;69433;48.642;9.142;2024-01-11T10:29:42;15.13;;;10.73;;
80123;SDS011;69433;48.642;9.142;2024-01-11T10:32:25;15.25;;;9.88;;
80123;SDS011;69433;48.642;9.142;2024-01-11T10:34:55;15.57;;;9.40;;
80123;SDS011;69433;48.642;9.142;2024-01-11T10:37:21;15.13;;;9.90;;
80123;SDS011;69433;48.642;9.142;2024-01-11T10:39:50;14.05;;;9.30;;
80123;SDS011;69433;48.642;9.142;2024-01-11T10:42:18;13.35;;;10.07;;
80123;SDS011;69433;48.642;9.142;2024-01-11T10:44:49;16.20;;;10.00;;
80123;SDS011;69433;48.642;9.142;2024-01-11T10:47:28;14.25;;;8.95;;
80123;SDS011;69433;48.642;9.142;2024-01-11T10:49:55;11.75;;;8.55;;
80123;SDS011;69433;48.642;9.142;2024-01-11T10:52:22;13.55;;;8.88;;
80123;SDS011;69433;48.642;9.142;2024-01-11T10:54:53;12.38;;;9.23;;
80123;SDS011;69433;48.642;9.142;2024-01-11T10:57:21;11.82;;;8.60;;
80123;SDS011;69433;48.642;9.142;2024-01-11T10:59:47;11.63;;;8.23;;
80123;SDS011;69433;48.642;9.142;2024-01-11T11:02:13;12.20;;;9.15;;
80123;SDS011;69433;48.642;9.142;2024-01-11T11:04:42;13.20;;;8.95;;
80123;SDS011;69433;48.642;9.142;2024-01-11T11:07:09;12.75;;;9.20;;
80123;SDS011;69433;48.642;9.142;2024-01-11T11:09:40;11.55;;;8.65;;
80123;SDS011;69433;48.642;9.142;2024-01-11T11:12:08;13.18;;;9.13;;
80123;SDS011;69433;48.642;9.142;2024-01-11T11:14:35;12.68;;;8.07;;
80123;SDS011;69433;48.642;9.142;2024-01-11T11:17:08;14.50;;;9.32;;
80123;SDS011;69433;48.642;9.142;2024-01-11T11:19:36;11.38;;;8.27;;
80123;SDS011;69433;48.642;9.142;2024-01-11T11:22:03;16.15;;;9.88;;
80123;SDS011;69433;48.642;9.142;2024-01-11T11:24:39;17.42;;;12.15;;
80123;SDS011;69433;48.642;9.142;2024-01-11T11:27:05;16.20;;;11.13;;
80123;SDS011;69433;48.642;9.142;2024-01-11T11:29:36;15.65;;;10.77;;
80123;SDS011;69433;48.642;9.142;2024-01-11T11:32:09;14.93;;;10.90;;
80123;SDS011;69433;48.642;9.142;2024-01-11T11:34:45;14.20;;;9.90;;
80123;SDS011;69433;48.642;9.142;2024-01-11T11:37:13;12.90;;;9.75;;
80123;SDS011;69433;48.642;9.142;2024-01-11T11:39:48;14.65;;;9.45;;
80123;SDS011;69433;48.642;9.142;2024-01-11T11:45:24;13.82;;;9.88;;
80123;SDS011;69433;48.642;9.142;2024-01-11T11:47:53;15.38;;;8.95;;
80123;SDS011;69433;48.642;9.142;2024-01-11T11:50:34;15.90;;;9.88;;
80123;SDS011;69433;48.642;9.142;2024-01-11T11:53:14;12.02;;;8.98;;
80123;SDS011;69433;48.642;9.142;2024-01-11T11:55:41;15.45;;;10.02;;
80123;SDS011;69433;48.642;9.142;2024-01-11T11:58:06;14.68;;;8.98;;
80123;SDS011;69433;48.642;9.142;2024-01-11T12:00:38;13.68;;;9.23;;
80123;SDS011;69433;48.642;9.142;2024-01-11T12:03:07;13.00;;;8.60;;
80123;SDS011;69433;48.642;9.142;2024-01-11T12:05:37;11.70;;;8.07;;
80123;SDS011;69433;48.642;9.142;2024-01-11T12:08:14;13.65;;;9.10;;
80123;SDS011;69433;48.642;9.142;2024-01-11T12:10:40;12.45;;;8.38;;
80123;SDS011;69433;48.642;9.142;2024-01-11T12:13:05;10.10;;;8.20;;
80123;SDS011;69433;48.642;9.142;2024-01-11T12:15:41;12.43;;;8.57;;
80123;SDS011;69433;48.642;9.142;2024-01-11T12:18:07;10.75;;;7.30;;
80123;SDS011;69433;48.642;9.142;2024-01-11T12:23:10;12.38;;;7.57;;
80123;SDS011;69433;48.642;9.142;2024-01-11T12:25:35;9.93;;;7.65;;
80123;SDS011;69433;48.642;9.142;2024-01-11T12:28:01;11.05;;;7.88;;
80123;SDS011;69433;48.642;9.142;2024-01-11T12:30:28;10.45;;;7.07;;
80123;SDS011;69433;48.642;9.142;2024-01-11T12:35:30;11.13;;;8.10;;
80123;SDS011;69433;48.642;9.142;2024-01-11T12:37:58;12.70;;;8.15;;
80123;SDS011;69433;48.642;9.142;2024-01-11T12:40:35;11.18;;;7.57;;
80123;SDS011;69433;48.642;9.142;2024-01-11T12:43:07;11.05;;;7.90;;
80123;SDS011;69433;48.642;9.142;2024-01-11T12:45:48;11.18;;;7.72;;
80123;SDS011;69433;48.642;9.142;2024-01-11T12:48:18;12.30;;;8.45;;
80123;SDS011;69433;48.642;9.142;2024-01-11T12:50:44;11.98;;;8.00;;
80123;SDS011;69433;48.642;9.142;2024-01-11T12:53:15;13.57;;;8.48;;
80123;SDS011;69433;48.642;9.142;2024-01-11T12:56:01;13.25;;;8.80;;
80123;SDS011;69433;48.642;9.142;2024-01-11T13:03:46;11.73;;;7.13;;
80123;SDS011;69433;48.642;9.142;2024-01-11T13:06:15;10.90;;;7.90;;
80123;SDS011;69433;48.642;9.142;2024-01-11T13:08:42;9.95;;;7.50;;
80123;SDS011;69433;48.642;9.142;2024-01-11T13:13:59;12.02;;;7.95;;
80123;SDS011;69433;48.642;9.142;2024-01-11T13:19:22;10.27;;;7.68;;
80123;SDS011;69433;48.642;9.142;2024-01-11T13:21:47;11.80;;;7.70;;
80123;SDS011;69433;48.642;9.142;2024-01-11T13:24:22;9.57;;;7.50;;
80123;SDS011;69433;48.642;9.142;2024-01-11T13:26:48;11.82;;;7.70;;
80123;SDS011;69433;48.642;9.142;2024-01-11T13:29:13;10.15;;;7.63;;
80123;SDS011;69433;48.642;9.142;2024-01-11T13:34:28;9.82;;;7.35;;
80123;SDS011;69433;48.642;9.142;2024-01-11T13:37:02;10.88;;;8.27;;
80123;SDS011;69433;48.642;9.142;2024-01-11T13:39:28;10.25;;;7.43;;
80123;SDS011;69433;48.642;9.142;2024-01-11T13:41:54;10.27;;;7.72;;
80123;SDS011;69433;48.642;9.142;2024-01-11T13:44:33;11.77;;;7.55;;
80123;SDS011;69433;48.642;9.142;2024-01-11T13:47:10;10.43;;;7.60;;
80123;SDS011;69433;48.642;9.142;2024-01-11T13:49:43;10.13;;;7.90;;
80123;SDS011;69433;48.642;9.142;2024-01-11T13:52:09;11.45;;;8.10;;
80123;SDS011;69433;48.642;9.142;2024-01-11T13:57:29;10.93;;;7.78;;
80123;SDS011;69433;48.642;9.142;2024-01-11T13:59:54;12.32;;;7.35;;
80123;SDS011;69433;48.642;9.142;2024-01-11T14:02:20;9.90;;;8.10;;
80123;SDS011;69433;48.642;9.142;2024-01-11T14:04:54;10.38;;;7.80;;
80123;SDS011;69433;48.642;9.142;2024-01-11T14:07:19;11.18;;;8.27;;
80123;SDS011;69433;48.642;9.142;2024-01-11T14:09:45;9.80;;;7.53;;
80123;SDS011;69433;48.642;9.142;2024-01-11T14:12:10;10.75;;;7.70;;
80123;SDS011;69433;48.642;9.142;2024-01-11T14:14:37;9.75;;;7.32;;
80123;SDS011;69433;48.642;9.142;2024-01-11T14:17:02;10.90;;;7.35;;
80123;SDS011;69433;48.642;9.142;2024-01-11T14:19:34;9.20;;;7.03;;
80123;SDS011;69433;48.642;9.142;2024-01-11T14:22:04;9.70;;;7.47;;
80123;SDS011;69433;48.642;9.142;2024-01-11T14:27:00;11.23;;;7.70;;
80123;SDS011;69433;48.642;9.142;2024-01-11T14:29:28;10.95;;;7.78;;
80123;SDS011;69433;48.642;9.142;2024-01-11T14:31:54;11.65;;;8.70;;
80123;SDS011;69433;48.642;9.142;2024-01-11T14:34:19;11.32;;;8.38;;
80123;SDS011;69433;48.642;9.142;2024-01-11T14:36:54;11.93;;;7.80;;
80123;SDS011;69433;48.642;9.142;2024-01-11T14:39:21;11.75;;;7.53;;
80123;SDS011;69433;48.642;9.142;2024-01-11T14:41:48;11.30;;;7.65;;
80123;SDS011;69433;48.642;9.142;2024-01-11T14:44:20;12.00;;;7.97;;
80123;SDS011;69433;48.642;9.142;2024-01-11T14:46:48;11.18;;;8.15;;
80123;SDS011;69433;48.642;9.142;2024-01-11T14:49:15;10.38;;;7.30;;
80123;SDS011;69433;48.642;9.142;2024-01-11T14:51:42;11.23;;;7.85;;
80123;SDS011;69433;48.642;9.142;2024-01-11T14:54:08;11.30;;;7.82;;
80123;SDS011;69433;48.642;9.142;2024-01-11T14:56:42;11.45;;;8.02;;
80123;SDS011;69433;48.642;9.142;2024-01-11T14:59:17;11.35;;;8.27;;
80123;SDS011;69433;48.642;9.142;2024-01-11T15:01:43;11.18;;;7.63;;
80123;SDS011;69433;48.642;9.142;2024-01-11T15:04:09;12.98;;;8.50;;
80123;SDS011;69433;48.642;9.142;2024-01-11T15:06:36;9.93;;;7.25;;
80123;SDS011;69433;48.642;9.142;2024-01-11T15:09:08;9.85;;;7.13;;
80123;SDS011;69433;48.642;9.142;2024-01-11T15:11:37;11.75;;;8.50;;
80123;SDS011;69433;48.642;9.142;2024-01-11T15:14:07;10.20;;;7.82;;
80123;SDS011;69433;48.642;9.142;2024-01-11T15:16:37;10.63;;;7.40;;
80123;SDS011;69433;48.642;9.142;2024-01-11T15:19:02;10.88;;;8.10;;
80123;SDS011;69433;48.642;9.142;2024-01-11T15:21:29;11.02;;;7.45;;
80123;SDS011;69433;48.642;9.142;2024-01-11T15:24:06;10.25;;;7.38;;
80123;SDS011;69433;48.642;9.142;2024-01-11T15:31:53;11.35;;;7.47;;
80123;SDS011;69433;48.642;9.142;2024-01-11T15:34:18;10.60;;;7.80;;
80123;SDS011;69433;48.642;9.142;2024-01-11T15:36:43;10.75;;;8.02;;
80123;SDS011;69433;48.642;9.142;2024-01-11T15:44:53;9.98;;;8.80;;
80123;SDS011;69433;48.642;9.142;2024-01-11T15:47:33;12.25;;;8.32;;
80123;SDS011;69433;48.642;9.142;2024-01-11T15:50:07;14.80;;;8.52;;
80123;SDS011;69433;48.642;9.142;2024-01-11T15:52:35;11.25;;;8.27;;
80123;SDS011;69433;48.642;9.142;2024-01-11T15:55:16;12.25;;;8.35;;
80123;SDS011;69433;48.642;9.142;2024-01-11T15:57:44;11.18;;;8.98;;